Time;durP1;ratioP1;P1;durP2;ratioP2;P2;SDS_P1;SDS_P2;PMS_P1;PMS_P2;Temp;Humidity;BMP_temperature;BMP_pressure;BME280_temperature;BME280_humidity;BME280_pressure;Samples;Min_cycle;Max_cycle;Signal;HPM_P1;HPM_P2
2021/09/10 00:00:27;;;;;;;1.10;1.00;;;23.00;43.50;;;;;;4786196;29;20077;-75
2021/09/10 00:02:54;;;;;;;2.00;1.20;;;23.00;43.50;;;;;;4774845;29;20553;-71
2021/09/10 00:05:22;;;;;;;1.33;1.23;;;23.00;43.50;;;;;;4784315;30;20055;-75
2021/09/10 00:07:49;;;;;;;1.27;1.00;;;22.90;43.50;;;;;;4783582;29;20146;-71
2021/09/10 00:10:16;;;;;;;2.17;1.42;;;23.00;43.60;;;;;;4768457;30;20134;-75
2021/09/10 00:12:43;;;;;;;1.20;1.13;;;23.00;43.60;;;;;;4767417;29;20051;-71
2021/09/10 00:15:11;;;;;;;2.95;1.60;;;22.90;43.60;;;;;;4782410;29;20146;-75
2021/09/10 00:17:38;;;;;;;2.70;1.05;;;22.90;43.70;;;;;;4785324;29;20082;-75
2021/09/10 00:20:05;;;;;;;1.10;0.82;;;22.90;43.70;;;;;;4786220;30;20520;-72
2021/09/10 00:22:35;;;;;;;1.17;1.05;;;22.90;43.70;;;;;;4776593;29;20135;-70
2021/09/10 00:25:02;;;;;;;1.48;1.05;;;22.90;43.70;;;;;;4779844;30;20095;-71
2021/09/10 00:27:30;;;;;;;1.33;1.05;;;22.90;43.70;;;;;;4784427;30;20146;-74
2021/09/10 00:29:57;;;;;;;1.48;1.17;;;22.90;43.80;;;;;;4785947;29;20051;-75
2021/09/10 00:32:24;;;;;;;1.20;0.98;;;22.90;43.80;;;;;;4777809;29;20674;-71
2021/09/10 00:34:51;;;;;;;2.13;1.45;;;22.90;43.80;;;;;;4777533;29;20155;-72
2021/09/10 00:37:18;;;;;;;2.05;1.33;;;22.80;43.70;;;;;;4785891;29;20059;-75
2021/09/10 00:39:45;;;;;;;1.13;1.02;;;22.90;43.80;;;;;;4785083;29;20146;-75
2021/09/10 00:42:40;;;;;;;1.27;1.17;;;22.90;43.80;;;;;;4778429;29;20081;-72
2021/09/10 00:45:07;;;;;;;1.13;1.02;;;22.90;43.80;;;;;;4773251;30;20056;-74
2021/09/10 00:47:36;;;;;;;1.60;1.13;;;22.90;43.80;;;;;;4784612;29;20056;-75
2021/09/10 00:50:04;;;;;;;2.00;1.25;;;22.90;43.80;;;;;;4785439;29;20134;-74
2021/09/10 00:52:41;;;;;;;1.20;1.10;;;22.80;43.80;;;;;;4777303;29;20051;-71
2021/09/10 00:55:09;;;;;;;1.85;1.27;;;22.90;43.90;;;;;;4778525;30;20135;-75
2021/09/10 00:57:37;;;;;;;1.85;1.30;;;22.90;43.90;;;;;;4766167;30;20551;-75
2021/09/10 01:00:05;;;;;;;1.02;0.93;;;22.90;43.90;;;;;;4767109;30;20055;-74
2021/09/10 01:02:32;;;;;;;1.45;1.00;;;22.90;43.90;;;;;;4768191;30;20108;-71
2021/09/10 01:05:11;;;;;;;1.60;1.50;;;22.90;43.90;;;;;;4780646;29;20067;-74
2021/09/10 01:07:38;;;;;;;1.63;1.08;;;22.90;43.90;;;;;;4784783;29;20157;-75
2021/09/10 01:10:06;;;;;;;1.27;1.02;;;22.80;43.90;;;;;;4784907;30;20059;-71
2021/09/10 01:12:33;;;;;;;1.45;1.35;;;22.80;43.90;;;;;;4779782;29;20061;-70
2021/09/10 01:15:02;;;;;;;1.65;1.08;;;22.80;43.90;;;;;;4781685;29;20142;-72
2021/09/10 01:17:29;;;;;;;1.17;1.08;;;22.80;43.90;;;;;;4784586;29;20146;-71
2021/09/10 01:19:56;;;;;;;1.10;1.00;;;22.80;44.00;;;;;;4784212;29;20061;-75
2021/09/10 01:22:48;;;;;;;1.13;1.10;;;22.80;44.00;;;;;;4776885;29;20061;-70
2021/09/10 01:25:18;;;;;;;1.52;1.02;;;22.80;43.90;;;;;;4777671;30;20086;-75
2021/09/10 01:27:49;;;;;;;1.10;1.00;;;22.80;44.00;;;;;;4766972;30;20138;-75
2021/09/10 01:30:18;;;;;;;1.15;1.05;;;22.80;43.90;;;;;;4766568;30;20087;-75
2021/09/10 01:32:46;;;;;;;1.10;1.00;;;22.80;44.00;;;;;;4773621;30;20119;-74
2021/09/10 01:38:24;;;;;;;1.17;1.05;;;22.80;44.10;;;;;;4781953;29;20490;-73
2021/09/10 01:40:52;;;;;;;1.23;0.90;;;22.80;44.10;;;;;;4784596;29;20093;-71
2021/09/10 01:43:19;;;;;;;0.90;0.90;;;22.80;44.20;;;;;;4773665;29;20071;-74
2021/09/10 01:45:46;;;;;;;0.90;0.90;;;22.70;44.10;;;;;;4781372;29;20061;-71
2021/09/10 01:48:14;;;;;;;1.20;1.10;;;22.70;44.20;;;;;;4784099;29;20387;-71
2021/09/10 01:50:41;;;;;;;1.40;1.30;;;22.70;44.20;;;;;;4784484;29;20055;-74
2021/09/10 01:53:08;;;;;;;0.95;0.93;;;22.70;44.20;;;;;;4772590;29;20138;-73
2021/09/10 01:55:35;;;;;;;1.65;1.38;;;22.70;44.20;;;;;;4782723;29;20051;-71
2021/09/10 01:58:02;;;;;;;0.88;0.88;;;22.70;44.20;;;;;;4783546;29;20086;-71
2021/09/10 02:00:30;;;;;;;1.33;1.23;;;22.70;44.20;;;;;;4784124;29;20153;-71
2021/09/10 02:02:58;;;;;;;1.00;1.00;;;22.70;44.20;;;;;;4779842;29;20096;-72
2021/09/10 02:05:25;;;;;;;1.38;1.00;;;22.70;44.20;;;;;;4782998;29;20149;-74
2021/09/10 02:07:52;;;;;;;1.08;0.93;;;22.70;44.20;;;;;;4782497;30;20142;-71
2021/09/10 02:10:20;;;;;;;1.30;1.20;;;22.70;44.20;;;;;;4782865;29;20137;-71
2021/09/10 02:13:55;;;;;;;1.30;1.20;;;22.70;44.20;;;;;;4774100;29;20138;-71
2021/09/10 02:16:22;;;;;;;1.23;1.08;;;22.70;44.20;;;;;;4779043;29;20137;-74
2021/09/10 02:18:49;;;;;;;1.08;1.08;;;22.70;44.20;;;;;;4782777;29;20142;-71
2021/09/10 02:21:16;;;;;;;1.48;1.30;;;22.70;44.30;;;;;;4781917;29;20067;-72
2021/09/10 02:23:43;;;;;;;0.90;0.90;;;22.70;44.30;;;;;;4774803;29;20062;-74
2021/09/10 02:26:11;;;;;;;0.90;0.90;;;22.70;44.30;;;;;;4781147;29;20052;-70
2021/09/10 02:28:38;;;;;;;1.42;1.23;;;22.70;44.20;;;;;;4783595;29;20077;-74
2021/09/10 02:31:05;;;;;;;1.00;0.90;;;22.70;44.30;;;;;;4783133;29;20058;-74
2021/09/10 02:33:33;;;;;;;1.20;1.10;;;22.70;44.20;;;;;;4775392;29;20075;-70
2021/09/10 02:36:01;;;;;;;1.30;1.20;;;22.70;44.20;;;;;;4784026;29;20055;-70
2021/09/10 02:38:29;;;;;;;2.92;1.27;;;22.70;44.20;;;;;;4783772;29;20137;-74
2021/09/10 02:40:56;;;;;;;1.15;1.08;;;22.70;44.30;;;;;;4783331;30;20055;-71
2021/09/10 02:43:23;;;;;;;1.38;1.13;;;22.70;44.30;;;;;;4769976;29;20138;-74
2021/09/10 02:45:50;;;;;;;1.55;1.08;;;22.70;44.30;;;;;;4782841;29;20123;-71
2021/09/10 02:48:17;;;;;;;1.30;1.20;;;22.70;44.30;;;;;;4782768;29;20474;-74
2021/09/10 02:50:44;;;;;;;2.55;1.30;;;22.70;44.30;;;;;;4783113;29;20147;-71
2021/09/10 02:53:11;;;;;;;1.20;1.10;;;22.70;44.30;;;;;;4771199;29;20727;-70
2021/09/10 02:55:38;;;;;;;1.33;1.23;;;22.70;44.40;;;;;;4785112;29;20051;-74
2021/09/10 02:58:05;;;;;;;1.10;0.80;;;22.60;44.40;;;;;;4785976;29;20486;-71
2021/09/10 03:00:33;;;;;;;1.20;1.10;;;22.60;44.40;;;;;;4786484;29;20047;-74
2021/09/10 03:03:27;;;;;;;1.27;1.17;;;22.60;44.50;;;;;;4775392;29;20702;-70
2021/09/10 03:05:55;;;;;;;1.00;0.95;;;22.60;44.50;;;;;;4784812;29;20058;-73
2021/09/10 03:08:23;;;;;;;1.23;1.00;;;22.60;44.50;;;;;;4786303;29;20134;-73
2021/09/10 03:10:50;;;;;;;1.05;0.98;;;22.60;44.50;;;;;;4785587;29;20157;-74
2021/09/10 03:13:18;;;;;;;2.10;1.15;;;22.60;44.50;;;;;;4776456;29;20163;-71
2021/09/10 03:15:45;;;;;;;2.00;1.20;;;22.60;44.50;;;;;;4787010;30;20051;-74
2021/09/10 03:18:12;;;;;;;0.77;0.77;;;22.60;44.60;;;;;;4783893;30;20047;-71
2021/09/10 03:20:39;;;;;;;1.73;1.13;;;22.60;44.50;;;;;;4784781;29;20059;-74
2021/09/10 03:26:23;;;;;;;1.20;0.90;;;22.60;44.50;;;;;;4784302;29;20051;-74
2021/09/10 03:28:50;;;;;;;2.22;1.38;;;22.60;44.60;;;;;;4785394;29;20146;-74
2021/09/10 03:31:17;;;;;;;1.17;0.90;;;22.60;44.60;;;;;;4787108;29;20608;-74
2021/09/10 03:33:44;;;;;;;1.40;1.15;;;22.60;44.60;;;;;;4785055;29;20138;-74
2021/09/10 03:36:12;;;;;;;1.73;1.35;;;22.60;44.60;;;;;;4787358;29;20053;-74
2021/09/10 03:38:39;;;;;;;1.52;1.08;;;22.60;44.60;;;;;;4782938;30;20106;-74
2021/09/10 03:41:06;;;;;;;1.85;1.35;;;22.60;44.60;;;;;;4778497;30;20051;-71
2021/09/10 03:43:35;;;;;;;1.00;1.00;;;22.60;44.60;;;;;;4787048;29;20070;-73
2021/09/10 03:46:02;;;;;;;1.35;0.95;;;22.60;44.60;;;;;;4809165;29;20066;-71
2021/09/10 03:48:59;;;;;;;1.48;1.23;;;22.60;44.60;;;;;;4803328;29;20096;-74
2021/09/10 03:51:55;;;;;;;1.35;1.25;;;22.50;44.60;;;;;;4782537;29;20057;-74
2021/09/10 03:54:22;;;;;;;1.95;1.30;;;22.60;44.70;;;;;;4778320;30;20375;-74
2021/09/10 03:56:49;;;;;;;1.88;1.02;;;22.60;44.70;;;;;;4782450;29;20104;-72
2021/09/10 03:59:17;;;;;;;1.55;1.02;;;22.60;44.70;;;;;;4783099;29;20051;-74
2021/09/10 04:01:44;;;;;;;2.08;1.23;;;22.60;44.70;;;;;;4780917;29;20090;-74
2021/09/10 04:04:11;;;;;;;2.33;1.40;;;22.60;44.70;;;;;;4780586;29;20082;-71
2021/09/10 04:06:38;;;;;;;4.43;1.33;;;22.60;44.70;;;;;;4784281;29;20070;-74
2021/09/10 04:09:05;;;;;;;1.63;1.23;;;22.60;44.80;;;;;;4783853;29;20082;-74
2021/09/10 04:12:13;;;;;;;1.27;1.13;;;22.60;45.30;;;;;;4782630;30;20110;-71
2021/09/10 04:14:40;;;;;;;1.33;1.00;;;22.60;44.80;;;;;;4783838;29;20055;-72
2021/09/10 04:17:07;;;;;;;2.35;1.40;;;22.60;44.90;;;;;;4779829;29;20488;-74
2021/09/10 04:19:34;;;;;;;1.33;1.23;;;22.60;45.00;;;;;;4784733;29;20048;-75
2021/09/10 04:22:01;;;;;;;1.85;1.10;;;22.60;45.00;;;;;;4778730;29;20078;-71
2021/09/10 04:24:32;;;;;;;1.50;1.15;;;22.50;45.10;;;;;;4777690;29;20051;-74
2021/09/10 04:26:59;;;;;;;2.33;1.42;;;22.50;45.10;;;;;;4784643;29;20091;-74
2021/09/10 04:29:26;;;;;;;1.92;1.42;;;22.50;45.10;;;;;;4784468;29;20150;-74
2021/09/10 04:31:54;;;;;;;2.05;1.70;;;22.50;45.10;;;;;;4778699;30;20051;-75
2021/09/10 04:34:21;;;;;;;2.28;1.50;;;22.60;45.20;;;;;;4776958;29;20074;-71
2021/09/10 04:36:49;;;;;;;1.58;1.48;;;22.60;45.20;;;;;;4782667;29;20134;-74
2021/09/10 04:39:17;;;;;;;2.30;1.48;;;22.60;45.20;;;;;;4779453;29;20614;-75
2021/09/10 04:41:44;;;;;;;1.90;1.58;;;22.60;45.10;;;;;;4786251;29;20144;-72
2021/09/10 04:44:11;;;;;;;1.88;1.40;;;22.60;45.10;;;;;;4786721;29;20054;-74
2021/09/10 04:46:38;;;;;;;1.92;1.50;;;22.60;45.10;;;;;;4792440;29;20047;-74
2021/09/10 04:49:06;;;;;;;1.88;1.60;;;22.60;45.10;;;;;;4786529;29;20043;-71
2021/09/10 04:51:37;;;;;;;1.75;1.58;;;22.60;45.00;;;;;;4784164;29;20075;-74
2021/09/10 04:54:04;;;;;;;3.13;1.70;;;22.60;45.00;;;;;;4777214;29;20093;-75
2021/09/10 04:56:31;;;;;;;5.28;2.15;;;22.60;45.00;;;;;;4790083;29;20059;-74
2021/09/10 04:59:02;;;;;;;1.55;1.45;;;22.70;45.00;;;;;;4791750;29;20050;-74
2021/09/10 05:01:30;;;;;;;2.50;1.95;;;22.70;45.00;;;;;;4788337;29;20051;-72
2021/09/10 05:03:57;;;;;;;5.60;2.78;;;22.70;45.00;;;;;;4773112;29;20137;-74
2021/09/10 05:06:24;;;;;;;2.90;2.00;;;22.70;44.90;;;;;;4786431;29;20606;-76
2021/09/10 05:08:55;;;;;;;3.08;2.15;;;22.70;44.80;;;;;;4783646;29;20055;-74
2021/09/10 05:11:43;;;;;;;4.10;2.78;;;22.80;44.70;;;;;;4780390;29;20066;-70
2021/09/10 05:14:10;;;;;;;4.00;1.88;;;22.80;44.50;;;;;;4773453;29;20078;-74
2021/09/10 05:16:37;;;;;;;8.27;2.38;;;22.80;44.40;;;;;;4782316;29;20555;-71
2021/09/10 05:19:04;;;;;;;2.17;1.88;;;22.80;44.40;;;;;;4780814;29;20061;-71
2021/09/10 05:21:31;;;;;;;3.88;2.22;;;22.80;44.70;;;;;;4781018;29;20146;-70
2021/09/10 05:23:59;;;;;;;4.20;1.70;;;22.80;45.00;;;;;;4769574;29;20158;-76
2021/09/10 05:26:26;;;;;;;3.92;1.63;;;22.80;45.10;;;;;;4780715;29;20116;-70
2021/09/10 05:28:53;;;;;;;5.72;2.80;;;22.80;45.10;;;;;;4777568;29;20047;-72
2021/09/10 05:31:20;;;;;;;4.72;1.95;;;22.80;45.00;;;;;;4779241;29;20123;-71
2021/09/10 05:33:47;;;;;;;5.82;1.80;;;22.80;44.90;;;;;;4769068;29;20667;-72
2021/09/10 05:36:14;;;;;;;2.67;1.70;;;22.80;44.90;;;;;;4776868;29;20478;-76
2021/09/10 05:38:41;;;;;;;7.63;1.90;;;22.80;44.80;;;;;;4774139;30;21485;-69
2021/09/10 05:41:17;;;;;;;2.40;1.90;;;22.80;44.80;;;;;;4775683;29;20057;-70
2021/09/10 05:43:44;;;;;;;3.15;1.77;;;22.90;44.80;;;;;;4769127;29;20055;-75
2021/09/10 05:46:12;;;;;;;6.72;1.83;;;22.90;44.80;;;;;;4773255;29;20079;-72
2021/09/10 05:48:39;;;;;;;3.47;2.17;;;22.90;44.70;;;;;;4776161;30;20054;-71
2021/09/10 05:51:08;;;;;;;2.35;2.08;;;22.90;44.50;;;;;;4766141;29;20077;-68
2021/09/10 05:54:08;;;;;;;3.97;2.20;;;22.90;44.30;;;;;;4776804;29;20082;-71
2021/09/10 05:56:38;;;;;;;3.80;2.55;;;23.00;44.00;;;;;;4773284;30;20059;-69
2021/09/10 05:59:05;;;;;;;5.78;2.83;;;23.00;43.90;;;;;;4777077;29;20051;-74
2021/09/10 06:01:32;;;;;;;8.75;3.67;;;23.00;43.60;;;;;;4780796;30;20175;-77
2021/09/10 06:04:00;;;;;;;9.00;3.70;;;23.00;43.10;;;;;;4769943;29;20079;-69
2021/09/10 06:06:27;;;;;;;8.93;3.55;;;23.10;42.90;;;;;;4778640;30;20071;-74
2021/09/10 06:08:54;;;;;;;7.75;4.32;;;23.00;42.60;;;;;;4784504;29;20141;-74
2021/09/10 06:11:21;;;;;;;8.48;4.00;;;23.00;42.60;;;;;;4778229;29;20066;-70
2021/09/10 06:13:48;;;;;;;9.20;4.30;;;23.10;42.70;;;;;;4771310;29;20500;-71
2021/09/10 06:16:19;;;;;;;10.10;3.92;;;23.10;42.80;;;;;;4776126;29;20043;-78
2021/09/10 06:18:47;;;;;;;10.25;4.35;;;23.10;42.90;;;;;;4778097;29;20059;-68
2021/09/10 06:21:14;;;;;;;10.50;4.60;;;23.20;42.90;;;;;;4775904;29;20593;-73
2021/09/10 06:23:41;;;;;;;10.80;4.60;;;23.20;42.90;;;;;;4770715;30;20083;-72
2021/09/10 06:26:08;;;;;;;6.50;4.68;;;23.20;42.80;;;;;;4770576;29;20070;-73
2021/09/10 06:28:36;;;;;;;8.25;4.35;;;23.20;42.80;;;;;;4779295;29;20159;-75
2021/09/10 06:31:05;;;;;;;8.15;4.82;;;23.30;42.90;;;;;;4777637;29;20061;-68
2021/09/10 06:33:32;;;;;;;8.35;4.30;;;23.30;42.90;;;;;;4772281;29;20553;-68
2021/09/10 06:36:00;;;;;;;11.68;5.05;;;23.30;42.90;;;;;;4779187;29;20067;-69
2021/09/10 06:38:27;;;;;;;14.73;5.07;;;23.40;42.90;;;;;;4779499;29;20043;-69
2021/09/10 06:40:56;;;;;;;10.98;4.63;;;23.40;43.00;;;;;;4782563;29;20054;-70
2021/09/10 06:43:23;;;;;;;7.13;4.07;;;23.40;42.90;;;;;;4775121;29;20780;-68
2021/09/10 06:45:50;;;;;;;8.02;3.95;;;23.50;42.80;;;;;;4779187;29;20201;-70
2021/09/10 06:48:17;;;;;;;11.07;4.80;;;23.50;42.70;;;;;;4781564;29;20371;-73
2021/09/10 06:50:45;;;;;;;12.15;4.43;;;23.50;42.70;;;;;;4777825;29;20053;-70
2021/09/10 06:53:44;;;;;;;8.55;3.95;;;23.50;42.60;;;;;;4771259;29;20130;-73
2021/09/10 06:56:11;;;;;;;8.32;4.05;;;23.60;42.60;;;;;;4783787;29;20067;-72
2021/09/10 06:58:39;;;;;;;9.35;4.28;;;23.60;42.60;;;;;;4780478;29;20055;-73
2021/09/10 07:01:06;;;;;;;6.55;3.80;;;23.60;42.50;;;;;;4776223;29;20062;-74
2021/09/10 07:03:34;;;;;;;8.90;4.03;;;23.60;42.40;;;;;;4772133;29;20131;-72
2021/09/10 07:06:02;;;;;;;6.40;4.10;;;23.70;42.40;;;;;;4781672;29;20114;-74
2021/09/10 07:08:30;;;;;;;8.05;3.65;;;23.70;42.30;;;;;;4779846;29;20138;-67
2021/09/10 07:11:01;;;;;;;5.85;3.53;;;23.70;42.20;;;;;;4793154;29;20111;-68
2021/09/10 07:13:28;;;;;;;9.88;4.43;;;23.80;42.30;;;;;;4793776;30;20055;-72
2021/09/10 07:15:56;;;;;;;7.63;4.03;;;23.80;42.30;;;;;;4795532;29;20061;-68
2021/09/10 07:18:23;;;;;;;5.15;3.30;;;23.80;42.20;;;;;;4795510;29;20459;-68
2021/09/10 07:20:51;;;;;;;10.75;3.30;;;23.80;42.00;;;;;;4794998;29;20061;-70
2021/09/10 07:23:18;;;;;;;8.60;3.10;;;23.80;41.90;;;;;;4795806;29;20116;-67
2021/09/10 07:25:45;;;;;;;5.00;3.47;;;23.90;42.00;;;;;;4794120;29;20138;-68
2021/09/10 07:28:12;;;;;;;5.90;3.25;;;23.90;42.00;;;;;;4791005;29;22620;-75
2021/09/10 07:30:39;;;;;;;7.43;3.70;;;23.90;42.20;;;;;;4786400;29;20527;-72
2021/09/10 07:33:06;;;;;;;13.60;3.13;;;23.90;42.20;;;;;;4776279;29;20517;-74
2021/09/10 07:35:34;;;;;;;9.68;3.17;;;24.00;42.40;;;;;;4770709;30;20140;-72
2021/09/10 07:38:01;;;;;;;4.22;3.20;;;24.00;42.40;;;;;;4776293;29;20234;-73
2021/09/10 07:40:28;;;;;;;5.70;3.03;;;24.10;42.60;;;;;;4779078;29;20173;-69
2021/09/10 07:42:55;;;;;;;6.00;2.95;;;24.00;42.60;;;;;;4769487;29;20774;-68
2021/09/10 07:45:23;;;;;;;4.75;2.60;;;24.10;42.60;;;;;;4771522;29;20701;-71
2021/09/10 07:47:51;;;;;;;7.55;3.85;;;24.10;42.60;;;;;;4776752;29;20558;-67
2021/09/10 07:50:18;;;;;;;11.70;4.72;;;24.10;42.60;;;;;;4778093;29;20078;-66
2021/09/10 07:52:45;;;;;;;8.88;4.38;;;24.20;42.60;;;;;;4771319;30;20138;-69
2021/09/10 07:55:12;;;;;;;7.20;3.92;;;24.20;42.50;;;;;;4771737;29;20135;-71
2021/09/10 07:57:39;;;;;;;6.10;3.83;;;24.20;42.40;;;;;;4780899;29;20066;-66
2021/09/10 08:00:07;;;;;;;8.73;3.50;;;24.30;42.20;;;;;;4774655;29;20158;-65
2021/09/10 08:02:51;;;;;;;7.43;3.28;;;24.30;42.20;;;;;;4774830;29;20055;-67
2021/09/10 08:05:18;;;;;;;7.60;3.10;;;24.30;42.10;;;;;;4776159;29;20065;-69
2021/09/10 08:07:46;;;;;;;4.53;2.97;;;24.30;42.00;;;;;;4780032;29;20150;-67
2021/09/10 08:10:15;;;;;;;5.35;3.20;;;24.40;41.90;;;;;;4778434;29;20085;-69
2021/09/10 08:12:45;;;;;;;5.03;3.25;;;24.40;42.00;;;;;;4778222;29;20050;-67
2021/09/10 08:15:15;;;;;;;4.47;3.08;;;24.50;42.10;;;;;;4776243;29;20039;-67
2021/09/10 08:17:43;;;;;;;5.45;2.53;;;24.50;41.80;;;;;;4782568;29;20108;-72
2021/09/10 08:20:12;;;;;;;7.05;2.80;;;24.50;41.70;;;;;;4781134;29;20122;-71
2021/09/10 08:22:40;;;;;;;8.48;2.65;;;24.60;41.70;;;;;;4773190;29;20086;-73
2021/09/10 08:25:09;;;;;;;4.50;2.60;;;24.60;41.70;;;;;;4767817;29;20130;-68
2021/09/10 08:27:37;;;;;;;8.35;3.00;;;24.60;41.50;;;;;;4785822;29;20065;-68
2021/09/10 08:30:08;;;;;;;7.03;2.00;;;24.70;41.60;;;;;;4778720;29;20159;-66
2021/09/10 08:33:24;;;;;;;4.55;2.50;;;24.70;41.80;;;;;;4777079;29;20059;-69
2021/09/10 08:35:56;;;;;;;3.55;2.30;;;24.80;41.60;;;;;;4773614;29;20069;-71
2021/09/10 08:38:24;;;;;;;3.92;2.35;;;24.80;41.40;;;;;;4781173;29;20166;-65
2021/09/10 08:40:54;;;;;;;6.30;2.88;;;24.80;41.30;;;;;;4781978;29;20057;-66
2021/09/10 08:43:31;;;;;;;;;;;24.90;41.40;;;;;;4775258;29;20075;-67
2021/09/10 08:46:00;;;;;;;5.15;2.63;;;24.80;41.40;;;;;;4775448;29;19996;-68
2021/09/10 08:48:27;;;;;;;2.72;2.03;;;24.90;41.40;;;;;;4779349;29;20108;-68
2021/09/10 08:50:56;;;;;;;6.22;2.17;;;24.90;41.30;;;;;;4784400;29;20065;-65
2021/09/10 08:53:26;;;;;;;6.27;1.97;;;24.90;41.30;;;;;;4774647;29;20126;-69
2021/09/10 08:55:54;;;;;;;2.30;1.70;;;24.90;41.40;;;;;;4777784;29;21613;-67
2021/09/10 08:58:21;;;;;;;6.55;2.03;;;24.90;41.30;;;;;;4775481;29;20108;-72
2021/09/10 09:00:48;;;;;;;3.05;2.25;;;25.00;41.30;;;;;;4776286;29;20055;-69
2021/09/10 09:03:28;;;;;;;3.08;2.28;;;25.00;41.30;;;;;;4776287;29;20083;-72
2021/09/10 09:05:56;;;;;;;5.15;1.80;;;25.00;41.20;;;;;;4778885;29;20051;-76
2021/09/10 09:08:23;;;;;;;3.63;1.88;;;25.00;41.30;;;;;;4779024;30;20065;-72
2021/09/10 09:11:07;;;;;;;2.97;2.20;;;24.90;41.30;;;;;;4781360;29;20146;-74
2021/09/10 09:13:39;;;;;;;2.58;2.10;;;24.90;41.20;;;;;;4768251;29;20055;-72
2021/09/10 09:16:37;;;;;;;2.72;1.63;;;24.90;41.20;;;;;;4777883;29;20104;-72
2021/09/10 09:19:08;;;;;;;2.78;1.63;;;24.90;41.70;;;;;;4775391;30;20137;-71
2021/09/10 09:21:55;;;;;;;2.50;1.75;;;24.90;41.20;;;;;;4774951;30;20083;-72
2021/09/10 09:24:26;;;;;;;5.28;1.80;;;24.90;41.30;;;;;;4768380;29;20126;-71
2021/09/10 09:26:54;;;;;;;3.10;1.92;;;24.90;41.30;;;;;;4777098;29;20058;-72
2021/09/10 09:29:22;;;;;;;6.45;2.08;;;24.90;41.30;;;;;;4775303;29;20797;-73
2021/09/10 09:32:34;;;;;;;2.70;1.60;;;24.90;41.20;;;;;;4777080;29;20705;-71
2021/09/10 09:35:11;;;;;;;5.88;1.73;;;24.90;41.10;;;;;;4770565;30;20521;-75
2021/09/10 09:37:40;;;;;;;3.08;1.73;;;24.90;41.10;;;;;;4776835;29;20083;-70
2021/09/10 09:40:09;;;;;;;4.30;1.80;;;24.90;41.10;;;;;;4778396;30;20138;-70
2021/09/10 09:42:50;;;;;;;4.53;2.00;;;24.90;40.70;;;;;;4773061;30;20142;-67
2021/09/10 09:45:25;;;;;;;4.55;2.08;;;24.90;41.00;;;;;;4784768;29;20051;-70
2021/09/10 09:47:52;;;;;;;6.55;2.33;;;24.90;40.90;;;;;;4791331;29;20429;-71
2021/09/10 09:50:20;;;;;;;6.72;1.92;;;24.90;40.80;;;;;;4790639;29;20485;-71
2021/09/10 09:52:50;;;;;;;3.03;1.77;;;24.90;40.70;;;;;;4792226;29;20108;-71
2021/09/10 09:55:18;;;;;;;5.72;1.80;;;24.90;40.90;;;;;;4792609;29;20065;-65
2021/09/10 09:57:50;;;;;;;4.72;1.67;;;25.00;41.10;;;;;;4791032;29;20055;-67
2021/09/10 10:00:17;;;;;;;6.63;1.80;;;25.00;41.20;;;;;;4791043;29;20062;-64
2021/09/10 10:02:44;;;;;;;5.18;1.95;;;25.10;41.20;;;;;;4791862;29;20132;-65
2021/09/10 10:05:17;;;;;;;5.22;1.80;;;25.10;40.70;;;;;;4791360;29;20047;-68
2021/09/10 10:08:03;;;;;;;3.65;1.88;;;25.10;40.50;;;;;;4778718;29;20066;-69
2021/09/10 10:10:40;;;;;;;3.00;1.73;;;25.10;40.50;;;;;;4786704;29;20054;-76
2021/09/10 10:16:41;;;;;;;2.60;2.10;;;25.30;40.50;;;;;;4776013;29;20154;-66
2021/09/10 10:19:41;;;;;;;10.80;2.10;;;25.30;40.00;;;;;;4778480;29;20043;-66
2021/09/10 10:22:41;;;;;;;8.75;1.75;;;25.40;39.80;;;;;;4784877;29;20066;-65
2021/09/10 10:25:10;;;;;;;5.22;1.83;;;25.40;39.20;;;;;;4771352;29;20092;-65
2021/09/10 10:27:43;;;;;;;1.77;1.40;;;25.40;39.10;;;;;;4783483;29;20049;-67
2021/09/10 10:30:47;;;;;;;3.10;1.88;;;25.40;38.70;;;;;;4785097;29;20047;-64
2021/09/10 10:33:46;;;;;;;1.77;1.67;;;25.50;38.60;;;;;;4773141;29;20061;-67
2021/09/10 10:36:37;;;;;;;4.75;1.65;;;25.50;38.50;;;;;;4773190;29;20134;-68
2021/09/10 10:39:29;;;;;;;5.53;1.90;;;25.50;38.40;;;;;;4778080;29;20074;-66
2021/09/10 10:42:07;;;;;;;2.70;1.63;;;25.60;38.70;;;;;;4774366;29;20066;-66
2021/09/10 10:44:45;;;;;;;2.75;1.98;;;25.60;38.20;;;;;;4769037;29;20501;-69
2021/09/10 10:47:15;;;;;;;2.47;2.10;;;25.60;37.90;;;;;;4783422;29;20065;-68
2021/09/10 10:49:46;;;;;;;1.50;1.40;;;25.60;37.80;;;;;;4774175;29;20498;-65
2021/09/10 10:52:35;;;;;;;3.05;1.33;;;25.60;37.90;;;;;;4774858;29;20110;-64
2021/09/10 10:55:34;;;;;;;3.75;1.80;;;25.70;37.90;;;;;;4771640;29;20053;-69
2021/09/10 10:58:23;;;;;;;2.65;1.70;;;25.70;37.70;;;;;;4775466;29;20051;-69
2021/09/10 11:00:58;;;;;;;5.45;1.70;;;25.70;37.60;;;;;;4767634;29;20075;-71
2021/09/10 11:03:30;;;;;;;3.53;1.45;;;25.70;37.70;;;;;;4771917;29;20482;-72
2021/09/10 11:05:57;;;;;;;1.77;1.58;;;25.70;37.80;;;;;;4772326;29;20062;-71
2021/09/10 11:08:43;;;;;;;3.30;1.90;;;25.80;37.80;;;;;;4775154;29;20135;-66
2021/09/10 11:11:11;;;;;;;9.10;1.88;;;25.80;37.40;;;;;;4781160;29;20108;-66
2021/09/10 11:13:41;;;;;;;3.70;1.63;;;25.80;37.30;;;;;;4775032;29;20793;-68
2021/09/10 11:16:10;;;;;;;3.13;2.17;;;25.80;37.20;;;;;;4769441;29;20058;-68
2021/09/10 11:18:39;;;;;;;2.35;1.80;;;25.90;37.30;;;;;;4779592;29;20059;-69
2021/09/10 11:21:08;;;;;;;2.92;2.40;;;25.90;37.30;;;;;;4780557;29;20147;-71
2021/09/10 11:23:40;;;;;;;2.22;2.03;;;25.90;37.30;;;;;;4781097;29;20092;-68
2021/09/10 11:26:09;;;;;;;5.72;1.88;;;25.90;37.20;;;;;;4781949;29;20071;-67
2021/09/10 11:28:38;;;;;;;3.60;1.55;;;25.90;37.30;;;;;;4786015;29;20054;-68
2021/09/10 11:31:05;;;;;;;2.30;1.42;;;25.90;37.40;;;;;;4778677;29;20139;-69
2021/09/10 11:33:46;;;;;;;1.95;1.70;;;25.90;37.50;;;;;;4773227;29;20043;-65
2021/09/10 11:36:25;;;;;;;2.47;1.60;;;26.00;37.40;;;;;;4773415;29;20063;-70
2021/09/10 11:39:03;;;;;;;2.58;2.10;;;26.00;37.50;;;;;;4772664;29;20047;-69
2021/09/10 11:41:43;;;;;;;5.97;1.90;;;26.00;37.60;;;;;;4773395;29;20396;-68
2021/09/10 11:44:12;;;;;;;2.35;2.10;;;26.00;37.60;;;;;;4771648;29;20061;-71
2021/09/10 11:46:40;;;;;;;2.00;1.58;;;26.00;37.60;;;;;;4772195;29;20090;-67
2021/09/10 11:49:09;;;;;;;4.25;1.80;;;26.00;37.60;;;;;;4778819;29;20749;-67
2021/09/10 11:52:08;;;;;;;3.35;1.60;;;26.00;37.60;;;;;;4778060;29;20047;-66
2021/09/10 11:54:36;;;;;;;5.10;1.80;;;26.10;38.20;;;;;;4769253;29;20158;-66
2021/09/10 11:57:18;;;;;;;3.67;1.73;;;26.10;37.30;;;;;;4776805;29;20122;-70
2021/09/10 11:59:46;;;;;;;5.68;1.58;;;26.10;37.00;;;;;;4781093;29;20051;-68
2021/09/10 12:02:13;;;;;;;4.55;1.70;;;26.10;37.00;;;;;;4777856;29;20047;-65
2021/09/10 12:04:55;;;;;;;2.25;1.85;;;26.20;37.30;;;;;;4787262;29;20082;-66
2021/09/10 12:07:28;;;;;;;3.13;1.67;;;26.20;37.40;;;;;;4802006;29;20142;-68
2021/09/10 12:09:56;;;;;;;3.45;1.85;;;26.10;37.40;;;;;;4786101;29;20126;-73
2021/09/10 12:12:50;;;;;;;2.83;1.50;;;26.20;37.60;;;;;;4784519;29;20062;-69
2021/09/10 12:15:28;;;;;;;6.60;1.73;;;26.10;37.50;;;;;;4784375;29;20134;-71
2021/09/10 12:18:18;;;;;;;3.42;2.00;;;26.10;37.50;;;;;;4789113;29;20074;-74
2021/09/10 12:20:52;;;;;;;4.30;1.88;;;26.10;37.40;;;;;;4788507;29;20142;-74
2021/09/10 12:23:21;;;;;;;1.50;1.40;;;26.00;37.40;;;;;;4783443;29;20110;-74
2021/09/10 12:26:02;;;;;;;2.80;1.67;;;26.00;37.50;;;;;;4795896;29;20056;-74
2021/09/10 12:28:32;;;;;;;1.70;1.60;;;25.90;37.50;;;;;;4792807;29;20238;-72
2021/09/10 12:31:09;;;;;;;2.45;1.33;;;25.90;37.60;;;;;;4788382;29;20047;-74
2021/09/10 12:33:39;;;;;;;3.67;1.40;;;25.90;37.70;;;;;;4783535;29;20095;-72
2021/09/10 12:36:08;;;;;;;1.80;1.50;;;25.80;37.70;;;;;;4791520;29;20134;-74
2021/09/10 12:38:39;;;;;;;1.88;1.50;;;25.80;37.70;;;;;;4786495;29;20216;-74
2021/09/10 12:41:08;;;;;;;3.15;1.65;;;25.80;37.80;;;;;;4797796;29;20051;-73
2021/09/10 12:43:36;;;;;;;2.10;1.75;;;25.80;37.90;;;;;;4780322;29;20055;-73
2021/09/10 12:46:03;;;;;;;2.97;1.23;;;25.80;37.90;;;;;;4781417;29;20127;-74
2021/09/10 12:48:31;;;;;;;1.60;1.50;;;25.70;37.90;;;;;;4783808;29;20059;-74
2021/09/10 12:50:58;;;;;;;2.25;1.40;;;25.70;37.90;;;;;;4790043;29;20055;-74
2021/09/10 12:53:26;;;;;;;1.70;1.60;;;25.70;37.90;;;;;;4779534;29;20047;-73
2021/09/10 12:55:53;;;;;;;1.67;1.30;;;25.70;37.90;;;;;;4791158;29;20572;-73
2021/09/10 12:58:20;;;;;;;3.10;1.60;;;25.70;38.20;;;;;;4791921;29;20047;-70
2021/09/10 13:00:47;;;;;;;2.30;1.65;;;25.70;38.20;;;;;;4794283;29;20047;-72
2021/09/10 13:03:14;;;;;;;2.45;1.50;;;25.70;38.20;;;;;;4769837;29;20421;-72
2021/09/10 13:05:42;;;;;;;1.48;1.38;;;25.60;38.20;;;;;;4783969;30;20112;-72
2021/09/10 13:08:09;;;;;;;2.15;1.60;;;25.60;38.20;;;;;;4785101;29;20138;-72
2021/09/10 13:10:36;;;;;;;1.42;1.30;;;25.70;38.20;;;;;;4790637;29;20126;-76
2021/09/10 13:13:20;;;;;;;1.70;1.58;;;25.60;38.10;;;;;;4775665;29;20046;-69
2021/09/10 13:15:48;;;;;;;1.55;1.15;;;25.60;38.20;;;;;;4793592;29;20053;-72